createdAt,value
2018-05-12T00:01:50.807Z,15.67
2018-05-12T00:04:19.136Z,15.61
2018-05-12T00:06:47.472Z,15.60
2018-05-12T00:09:15.813Z,15.68
2018-05-12T00:11:44.827Z,15.30
2018-05-12T00:14:13.210Z,15.13
2018-05-12T00:16:42.534Z,15.03
2018-05-12T00:19:10.863Z,15.15
2018-05-12T00:21:39.185Z,15.15
2018-05-12T00:24:07.549Z,15.14
2018-05-12T00:26:35.928Z,15.20
2018-05-12T00:29:04.273Z,15.21
2018-05-12T00:31:32.606Z,14.95
2018-05-12T00:34:00.965Z,15.11
2018-05-12T00:36:29.290Z,15.20
2018-05-12T00:38:57.656Z,15.13
2018-05-12T00:41:27.439Z,15.10
2018-05-12T00:43:56.395Z,15.14
2018-05-12T00:46:24.719Z,15.14
2018-05-12T00:48:53.064Z,15.16
2018-05-12T00:51:21.412Z,15.13
2018-05-12T00:53:50.318Z,15.11
2018-05-12T00:56:18.649Z,15.11
2018-05-12T00:58:47.373Z,15.01
2018-05-12T01:01:16.521Z,15.00
2018-05-12T01:03:44.884Z,14.75
2018-05-12T01:06:13.222Z,14.81
2018-05-12T01:08:41.572Z,14.89
2018-05-12T01:11:09.917Z,14.87
2018-05-12T01:13:38.303Z,14.75
2018-05-12T01:16:06.614Z,14.87
2018-05-12T01:18:34.974Z,14.88
2018-05-12T01:21:03.315Z,14.86
2018-05-12T01:23:31.683Z,14.73
2018-05-12T01:26:00.008Z,14.70
2018-05-12T01:28:28.403Z,14.66
2018-05-12T01:30:56.784Z,14.78
2018-05-12T01:33:25.114Z,14.77
2018-05-12T01:35:53.462Z,14.71
2018-05-12T01:38:22.198Z,14.62
2018-05-12T01:40:50.566Z,14.68
2018-05-12T01:43:19.158Z,14.55
2018-05-12T01:45:47.536Z,14.42
2018-05-12T01:48:15.880Z,14.46
2018-05-12T01:50:44.229Z,14.34
2018-05-12T01:53:12.552Z,14.44
2018-05-12T01:55:40.918Z,14.54
2018-05-12T01:58:09.237Z,14.39
2018-05-12T02:00:37.580Z,14.40
2018-05-12T02:03:05.909Z,14.36
2018-05-12T02:05:34.684Z,14.36
2018-05-12T02:08:03.005Z,14.29
2018-05-12T02:10:31.351Z,14.28
2018-05-12T02:13:00.558Z,14.26
2018-05-12T02:15:28.914Z,14.20
2018-05-12T02:17:57.269Z,14.28
2018-05-12T02:20:25.671Z,14.20
2018-05-12T02:22:54.040Z,14.21
2018-05-12T02:25:22.383Z,14.27
2018-05-12T02:27:52.369Z,14.25
2018-05-12T02:30:21.307Z,14.32
2018-05-12T02:32:50.591Z,14.36
2018-05-12T02:35:18.927Z,14.32
2018-05-12T02:37:47.279Z,14.36
2018-05-12T02:40:15.590Z,14.09
2018-05-12T02:42:44.223Z,14.22
2018-05-12T02:45:12.577Z,14.00
2018-05-12T02:47:40.940Z,13.91
2018-05-12T02:50:09.280Z,13.84
2018-05-12T02:52:37.663Z,13.93
2018-05-12T02:55:06.059Z,13.90
2018-05-12T02:57:34.453Z,13.81
2018-05-12T03:00:02.784Z,13.80
2018-05-12T03:02:31.146Z,13.88
2018-05-12T03:04:59.489Z,13.92
2018-05-12T03:07:27.842Z,13.90
2018-05-12T03:09:56.170Z,13.83
2018-05-12T03:12:24.512Z,13.77
2018-05-12T03:14:53.267Z,13.67
2018-05-12T03:17:22.448Z,13.84
2018-05-12T03:19:51.583Z,13.91
2018-05-12T03:22:19.937Z,13.92
2018-05-12T03:24:48.737Z,13.88
2018-05-12T03:27:17.094Z,13.88
2018-05-12T03:29:45.417Z,13.85
2018-05-12T03:32:13.753Z,13.91
2018-05-12T03:34:42.171Z,13.97
2018-05-12T03:37:10.530Z,13.96
2018-05-12T03:39:38.879Z,13.95
2018-05-12T03:42:07.206Z,13.90
2018-05-12T03:44:35.552Z,13.79
2018-05-12T03:47:03.921Z,13.93
2018-05-12T03:49:32.606Z,13.86
2018-05-12T03:52:01.473Z,13.75
2018-05-12T03:54:30.048Z,13.86
2018-05-12T03:56:58.392Z,13.73
2018-05-12T03:59:26.736Z,13.86
2018-05-12T04:01:55.503Z,13.80
2018-05-12T04:04:35.665Z,13.63
2018-05-12T04:07:16.128Z,13.66
2018-05-12T04:09:57.419Z,13.56
2018-05-12T04:12:42.481Z,13.54
2018-05-12T04:15:10.838Z,13.72
2018-05-12T04:17:39.471Z,13.69
2018-05-12T04:20:07.849Z,13.65
2018-05-12T04:22:36.168Z,13.82
2018-05-12T04:25:05.241Z,13.80
2018-05-12T04:27:33.572Z,13.93
2018-05-12T04:30:02.276Z,13.99
2018-05-12T04:32:31.326Z,14.04
2018-05-12T04:35:00.598Z,13.88
2018-05-12T04:37:28.929Z,13.99
2018-05-12T04:39:57.394Z,14.01
2018-05-12T04:42:25.779Z,14.07
2018-05-12T04:44:54.937Z,14.12
2018-05-12T04:47:23.267Z,14.14
2018-05-12T04:49:51.593Z,14.17
2018-05-12T04:52:19.951Z,14.19
2018-05-12T04:54:48.282Z,14.23
2018-05-12T04:57:17.195Z,14.17
2018-05-12T04:59:45.535Z,14.29
2018-05-12T05:02:14.261Z,14.26
2018-05-12T05:04:42.703Z,14.31
2018-05-12T05:07:11.065Z,14.31
2018-05-12T05:09:40.236Z,14.32
2018-05-12T05:12:08.618Z,14.35
2018-05-12T05:14:36.951Z,14.39
2018-05-12T05:17:05.320Z,14.56
2018-05-12T05:19:33.649Z,14.40
2018-05-12T05:22:02.069Z,13.98
2018-05-12T05:24:30.406Z,14.00
2018-05-12T05:26:58.818Z,14.10
2018-05-12T05:29:27.381Z,14.42
2018-05-12T05:31:55.757Z,14.58
2018-05-12T05:34:24.139Z,14.73
2018-05-12T05:36:53.212Z,14.82
2018-05-12T05:39:21.546Z,15.03
2018-05-12T05:41:49.922Z,15.12
2018-05-12T05:44:18.327Z,15.34
2018-05-12T05:46:46.772Z,15.33
2018-05-12T05:49:15.569Z,15.38
2018-05-12T05:51:43.912Z,15.58
2018-05-12T05:54:13.318Z,15.70
2018-05-12T05:56:41.722Z,15.93
2018-05-12T05:59:10.092Z,16.00
2018-05-12T06:01:38.466Z,16.13
2018-05-12T06:04:06.837Z,16.14
2018-05-12T06:06:36.437Z,16.26
2018-05-12T06:09:05.789Z,16.43
2018-05-12T06:11:34.897Z,16.45
2018-05-12T06:14:03.676Z,16.45
2018-05-12T06:16:32.453Z,16.40
2018-05-12T06:19:00.810Z,16.48
2018-05-12T06:21:29.149Z,16.57
2018-05-12T06:23:57.553Z,16.55
2018-05-12T06:26:25.896Z,16.49
2018-05-12T06:28:54.253Z,16.69
2018-05-12T06:31:22.594Z,16.68
2018-05-12T06:33:51.000Z,16.52
2018-05-12T06:36:19.815Z,16.54
2018-05-12T06:38:48.168Z,16.87
2018-05-12T06:41:16.524Z,16.78
2018-05-12T06:43:44.863Z,16.77
2018-05-12T06:46:13.228Z,16.88
2018-05-12T06:48:41.574Z,17.13
2018-05-12T06:51:10.291Z,17.55
2018-05-12T06:53:38.629Z,17.56
2018-05-12T06:56:07.437Z,17.47
2018-05-12T06:58:37.362Z,17.65
2018-05-12T07:01:05.994Z,17.41
2018-05-12T07:03:34.333Z,17.78
2018-05-12T07:06:02.713Z,17.99
2018-05-12T07:08:31.051Z,17.91
2018-05-12T07:10:59.420Z,18.07
2018-05-12T07:13:27.896Z,18.27
2018-05-12T07:15:58.171Z,18.37
2018-05-12T07:18:26.636Z,18.38
2018-05-12T07:20:55.009Z,18.59
2018-05-12T07:23:23.353Z,18.57
2018-05-12T07:25:51.712Z,18.79
2018-05-12T07:28:20.062Z,18.74
2018-05-12T07:30:48.432Z,19.02
2018-05-12T07:33:16.769Z,19.21
2018-05-12T07:35:45.129Z,19.23
2018-05-12T07:38:13.474Z,19.24
2018-05-12T07:40:41.851Z,18.91
2018-05-12T07:43:10.192Z,18.97
2018-05-12T07:45:39.308Z,19.31
2018-05-12T07:48:07.603Z,19.54
2018-05-12T07:50:35.987Z,19.46
2018-05-12T07:53:04.327Z,19.53
2018-05-12T07:55:32.713Z,19.45
2018-05-12T07:58:01.045Z,19.61
2018-05-12T08:00:29.479Z,19.81
2018-05-12T08:02:58.504Z,20.10
2018-05-12T08:05:27.569Z,20.23
2018-05-12T08:07:55.903Z,20.33
2018-05-12T08:10:24.269Z,19.89
2018-05-12T08:12:52.646Z,20.42
2018-05-12T08:15:21.117Z,20.53
2018-05-12T08:17:49.464Z,20.01
2018-05-12T08:20:17.837Z,20.27
2018-05-12T08:22:46.842Z,20.53
2018-05-12T08:25:15.224Z,20.88
2018-05-12T08:27:43.562Z,20.67
2018-05-12T08:30:12.541Z,20.69
2018-05-12T08:32:40.922Z,20.52
2018-05-12T08:35:09.274Z,20.85
2018-05-12T08:37:37.629Z,20.80
2018-05-12T08:40:06.008Z,21.10
2018-05-12T08:42:34.352Z,21.16
2018-05-12T08:45:02.700Z,21.14
2018-05-12T08:47:31.468Z,20.79
2018-05-12T08:50:00.579Z,20.82
2018-05-12T08:52:29.380Z,20.19
2018-05-12T08:54:57.725Z,20.55
2018-05-12T08:57:26.110Z,20.85
2018-05-12T08:59:54.460Z,21.42
2018-05-12T09:02:22.832Z,21.58
2018-05-12T09:04:52.088Z,21.09
2018-05-12T09:07:20.450Z,21.24
2018-05-12T09:09:48.793Z,21.34
2018-05-12T09:12:17.163Z,21.52
2018-05-12T09:14:45.518Z,21.04
2018-05-12T09:17:14.106Z,21.49
2018-05-12T09:19:42.437Z,21.37
2018-05-12T09:22:11.032Z,21.80
2018-05-12T09:24:40.559Z,21.65
2018-05-12T09:27:09.504Z,21.51
2018-05-12T09:29:38.962Z,22.00
2018-05-12T09:32:07.356Z,22.30
2018-05-12T09:34:35.720Z,22.19
2018-05-12T09:37:04.070Z,22.78
2018-05-12T09:39:32.411Z,22.48
2018-05-12T09:42:01.117Z,22.84
2018-05-12T09:44:29.678Z,23.04
2018-05-12T09:46:58.022Z,23.06
2018-05-12T09:49:26.365Z,22.87
2018-05-12T09:51:55.070Z,22.79
2018-05-12T09:54:23.408Z,23.01
2018-05-12T09:56:52.771Z,22.39
2018-05-12T09:59:21.129Z,22.78
2018-05-12T10:01:49.479Z,22.93
2018-05-12T10:04:17.817Z,23.01
2018-05-12T10:06:47.017Z,22.72
2018-05-12T10:09:16.229Z,22.77
2018-05-12T10:11:44.593Z,22.66
2018-05-12T10:14:13.746Z,22.74
2018-05-12T10:16:42.106Z,22.55
2018-05-12T10:19:11.249Z,22.49
2018-05-12T10:21:39.613Z,22.67
2018-05-12T10:24:07.934Z,22.76
2018-05-12T10:26:37.430Z,22.82
2018-05-12T10:29:05.789Z,23.01
2018-05-12T10:31:34.843Z,23.11
2018-05-12T10:34:03.961Z,23.01
2018-05-12T10:36:32.311Z,22.86
2018-05-12T10:39:01.511Z,22.97
2018-05-12T10:41:29.859Z,23.09
2018-05-12T10:43:58.293Z,23.08
2018-05-12T10:46:26.693Z,23.46
2018-05-12T10:48:55.029Z,24.32
2018-05-12T10:51:23.930Z,25.07
2018-05-12T10:53:52.269Z,25.13
2018-05-12T10:56:21.601Z,25.67
2018-05-12T10:58:50.325Z,25.50
2018-05-12T11:01:18.931Z,25.98
2018-05-12T11:03:47.613Z,26.31
2018-05-12T11:06:15.968Z,26.25
2018-05-12T11:08:44.292Z,25.97
2018-05-12T11:11:12.660Z,25.62
2018-05-12T11:13:41.328Z,26.14
2018-05-12T11:16:10.002Z,26.34
2018-05-12T11:18:38.257Z,26.46
2018-05-12T11:21:06.615Z,26.74
2018-05-12T11:23:34.957Z,26.16
2018-05-12T11:26:03.717Z,26.43
2018-05-12T11:28:32.381Z,26.39
2018-05-12T11:31:00.726Z,25.51
2018-05-12T11:33:29.095Z,25.40
2018-05-12T11:35:57.777Z,25.91
2018-05-12T11:38:26.124Z,24.77
2018-05-12T11:40:54.462Z,25.88
2018-05-12T11:43:22.787Z,25.53
2018-05-12T11:45:51.442Z,24.93
2018-05-12T11:48:20.619Z,25.57
2018-05-12T11:50:48.981Z,25.74
2018-05-12T11:53:17.652Z,25.20
2018-05-12T11:55:45.978Z,25.89
2018-05-12T11:58:14.431Z,25.88
2018-05-12T12:00:42.721Z,26.43
2018-05-12T12:03:12.034Z,26.12
2018-05-12T12:05:40.377Z,25.21
2018-05-12T12:08:08.861Z,24.70
2018-05-12T12:10:37.196Z,25.52
2018-05-12T12:13:05.632Z,26.50
2018-05-12T12:15:34.679Z,25.13
2018-05-12T12:18:03.020Z,25.49
2018-05-12T12:20:31.346Z,25.95
2018-05-12T12:23:00.737Z,26.35
2018-05-12T12:25:29.393Z,26.88
2018-05-12T12:27:57.750Z,27.39
2018-05-12T12:30:26.975Z,27.09
2018-05-12T12:32:55.343Z,27.08
2018-05-12T12:35:23.702Z,26.54
2018-05-12T12:37:52.060Z,26.72
2018-05-12T12:40:20.427Z,26.98
2018-05-12T12:42:48.784Z,27.52
2018-05-12T12:45:17.112Z,27.77
2018-05-12T12:47:47.335Z,27.69
2018-05-12T12:50:16.597Z,27.28
2018-05-12T12:52:45.187Z,27.52
2018-05-12T12:55:13.947Z,26.31
2018-05-12T12:57:42.379Z,27.21
2018-05-12T13:00:10.647Z,27.63
2018-05-12T13:02:39.477Z,26.30
2018-05-12T13:05:07.809Z,26.06
2018-05-12T13:07:36.170Z,27.48
2018-05-12T13:10:04.502Z,28.30
2018-05-12T13:12:33.777Z,28.55
2018-05-12T13:15:02.134Z,28.41
2018-05-12T13:17:31.297Z,28.06
2018-05-12T13:19:59.752Z,28.33
2018-05-12T13:22:28.113Z,28.04
2018-05-12T13:24:56.438Z,28.69
2018-05-12T13:27:24.790Z,28.91
2018-05-12T13:29:53.172Z,29.25
2018-05-12T13:32:21.618Z,28.81
2018-05-12T13:34:49.931Z,28.11
2018-05-12T13:37:18.291Z,28.31
2018-05-12T13:39:46.629Z,28.46
2018-05-12T13:42:14.988Z,28.65
2018-05-12T13:44:43.313Z,29.03
2018-05-12T13:47:11.666Z,28.78
2018-05-12T13:49:39.993Z,29.35
2018-05-12T13:52:08.686Z,29.56
2018-05-12T13:54:37.312Z,28.94
2018-05-12T13:57:05.652Z,28.46
2018-05-12T13:59:33.997Z,29.11
2018-05-12T14:02:02.390Z,29.05
2018-05-12T14:04:31.271Z,29.27
2018-05-12T14:07:00.231Z,29.09
2018-05-12T14:09:28.573Z,29.52
2018-05-12T14:11:56.927Z,30.25
2018-05-12T14:14:25.270Z,30.33
2018-05-12T14:16:54.040Z,29.59
2018-05-12T14:19:23.152Z,30.19
2018-05-12T14:21:51.493Z,29.94
2018-05-12T14:24:20.691Z,30.19
2018-05-12T14:26:49.032Z,30.19
2018-05-12T14:29:17.672Z,30.55
2018-05-12T14:31:46.022Z,30.71
2018-05-12T14:34:14.361Z,31.40
2018-05-12T14:36:43.537Z,30.67
2018-05-12T14:39:11.862Z,30.43
2018-05-12T14:41:40.188Z,29.90
2018-05-12T14:44:08.538Z,29.86
2018-05-12T14:46:36.878Z,29.64
2018-05-12T14:49:05.455Z,30.44
2018-05-12T14:51:33.788Z,30.29
2018-05-12T14:54:02.137Z,30.41
2018-05-12T14:56:30.476Z,30.79
2018-05-12T14:58:58.823Z,30.08
2018-05-12T15:01:27.165Z,30.17
2018-05-12T15:03:55.513Z,29.73
2018-05-12T15:06:23.877Z,28.98
2018-05-12T15:08:52.468Z,28.01
2018-05-12T15:11:21.592Z,28.71
2018-05-12T15:13:49.960Z,29.74
2018-05-12T15:16:18.431Z,29.78
2018-05-12T15:18:47.123Z,30.07
2018-05-12T15:21:16.445Z,30.33
2018-05-12T15:23:45.249Z,29.68
2018-05-12T15:26:13.593Z,29.97
2018-05-12T15:28:41.953Z,30.19
2018-05-12T15:31:10.276Z,30.43
2018-05-12T15:33:38.615Z,30.54
2018-05-12T15:36:07.308Z,30.68
2018-05-12T15:38:35.612Z,30.52
2018-05-12T15:41:04.246Z,30.55
2018-05-12T15:43:32.591Z,30.35
2018-05-12T15:46:01.766Z,30.64
2018-05-12T15:48:30.632Z,30.36
2018-05-12T15:50:59.211Z,30.05
2018-05-12T15:53:27.537Z,30.28
2018-05-12T15:55:55.894Z,30.54
2018-05-12T15:58:24.232Z,30.66
2018-05-12T16:00:52.590Z,30.52
2018-05-12T16:03:20.919Z,30.49
2018-05-12T16:05:49.340Z,30.63
2018-05-12T16:08:17.664Z,30.57
2018-05-12T16:10:46.457Z,30.60
2018-05-12T16:13:15.457Z,30.05
2018-05-12T16:15:43.803Z,30.46
2018-05-12T16:18:12.120Z,30.58
2018-05-12T16:20:41.247Z,29.91
2018-05-12T16:23:10.912Z,30.01
2018-05-12T16:25:39.659Z,29.98
2018-05-12T16:28:08.013Z,30.29
2018-05-12T16:30:36.367Z,30.41
2018-05-12T16:33:05.109Z,30.28
2018-05-12T16:35:34.273Z,30.45
2018-05-12T16:38:02.996Z,30.46
2018-05-12T16:40:31.329Z,29.89
2018-05-12T16:42:59.685Z,30.02
2018-05-12T16:45:28.023Z,29.92
2018-05-12T16:47:56.607Z,30.01
2018-05-12T16:50:25.164Z,30.00
2018-05-12T16:52:54.424Z,29.98
2018-05-12T16:55:22.752Z,29.92
2018-05-12T16:57:51.107Z,29.84
2018-05-12T17:00:20.365Z,29.90
2018-05-12T17:02:48.718Z,29.67
2018-05-12T17:05:17.057Z,29.59
2018-05-12T17:07:45.444Z,29.48
2018-05-12T17:10:14.046Z,29.43
2018-05-12T17:12:42.418Z,29.51
2018-05-12T17:15:10.761Z,29.53
2018-05-12T17:17:39.157Z,29.36
2018-05-12T17:20:08.391Z,29.15
2018-05-12T17:22:36.766Z,29.29
2018-05-12T17:25:05.688Z,29.14
2018-05-12T17:27:34.046Z,29.27
2018-05-12T17:30:02.384Z,28.76
2018-05-12T17:32:31.677Z,28.75
2018-05-12T17:35:00.002Z,28.65
2018-05-12T17:37:29.208Z,28.73
2018-05-12T17:39:57.630Z,28.58
2018-05-12T17:42:26.968Z,28.34
2018-05-12T17:44:55.331Z,28.35
2018-05-12T17:47:23.737Z,28.19
2018-05-12T17:49:52.205Z,27.88
2018-05-12T17:52:20.549Z,27.82
2018-05-12T17:54:50.428Z,27.85
2018-05-12T17:57:18.857Z,27.65
2018-05-12T17:59:48.273Z,27.62
2018-05-12T18:02:17.518Z,27.58
2018-05-12T18:04:46.165Z,27.34
2018-05-12T18:07:14.522Z,27.10
2018-05-12T18:09:43.757Z,26.83
2018-05-12T18:12:12.426Z,26.79
2018-05-12T18:14:40.782Z,26.55
2018-05-12T18:17:09.893Z,26.38
2018-05-12T18:19:38.253Z,26.37
2018-05-12T18:22:07.411Z,26.23
2018-05-12T18:24:35.767Z,26.14
2018-05-12T18:27:04.338Z,25.96
2018-05-12T18:29:33.433Z,26.00
2018-05-12T18:32:02.394Z,25.86
2018-05-12T18:34:31.178Z,25.61
2018-05-12T18:36:59.506Z,25.38
2018-05-12T18:39:27.860Z,25.27
2018-05-12T18:41:56.195Z,25.06
2018-05-12T18:44:24.685Z,24.84
2018-05-12T18:46:53.066Z,24.55
2018-05-12T18:49:21.434Z,24.41
2018-05-12T18:51:49.775Z,24.37
2018-05-12T18:54:18.128Z,24.26
2018-05-12T18:56:46.471Z,24.28
2018-05-12T18:59:14.829Z,24.18
2018-05-12T19:01:43.157Z,23.93
2018-05-12T19:04:12.430Z,23.86
2018-05-12T19:06:40.808Z,23.90
2018-05-12T19:09:09.411Z,23.84
2018-05-12T19:11:38.029Z,23.97
2018-05-12T19:14:06.839Z,23.87
2018-05-12T19:16:35.269Z,23.89
2018-05-12T19:19:04.489Z,23.87
2018-05-12T19:21:33.822Z,23.88
2018-05-12T19:24:02.578Z,23.75
2018-05-12T19:26:31.834Z,23.58
2018-05-12T19:29:00.217Z,23.38
2018-05-12T19:31:29.471Z,23.33
2018-05-12T19:33:58.475Z,23.41
2018-05-12T19:36:27.436Z,23.27
2018-05-12T19:38:56.028Z,23.27
2018-05-12T19:41:24.345Z,23.13
2018-05-12T19:43:53.431Z,22.95
2018-05-12T19:46:21.789Z,22.88
2018-05-12T19:48:50.226Z,22.82
2018-05-12T19:51:18.558Z,22.71
2018-05-12T19:53:46.934Z,22.61
2018-05-12T19:56:15.265Z,22.57
2018-05-12T19:58:43.614Z,22.52
2018-05-12T20:01:12.008Z,22.31
2018-05-12T20:03:40.361Z,22.20
2018-05-12T20:06:08.760Z,22.12
2018-05-12T20:08:37.129Z,22.03
2018-05-12T20:11:05.478Z,22.19
2018-05-12T20:13:33.855Z,22.05
2018-05-12T20:16:02.693Z,22.14
2018-05-12T20:18:30.997Z,21.95
2018-05-12T20:21:00.255Z,21.86
2018-05-12T20:23:30.252Z,21.84
2018-05-12T20:25:58.600Z,21.95
2018-05-12T20:28:27.340Z,21.77
2018-05-12T20:30:55.761Z,21.61
2018-05-12T20:33:25.580Z,21.50
2018-05-12T20:35:54.142Z,21.52
2018-05-12T20:38:22.737Z,21.34
2018-05-12T20:40:51.911Z,21.22
2018-05-12T20:43:21.001Z,21.19
2018-05-12T20:45:49.328Z,21.23
2018-05-12T20:48:17.678Z,21.08
2018-05-12T20:50:46.003Z,20.99
2018-05-12T20:53:14.353Z,20.95
2018-05-12T20:55:43.511Z,20.96
2018-05-12T20:58:12.964Z,20.86
2018-05-12T21:00:41.731Z,20.81
2018-05-12T21:03:10.606Z,20.84
2018-05-12T21:05:38.934Z,20.89
2018-05-12T21:08:07.334Z,21.02
2018-05-12T21:10:35.657Z,20.84
2018-05-12T21:13:04.745Z,20.74
2018-05-12T21:15:33.107Z,20.63
2018-05-12T21:18:01.433Z,20.75
2018-05-12T21:20:29.861Z,20.47
2018-05-12T21:22:58.470Z,20.51
2018-05-12T21:25:26.798Z,20.55
2018-05-12T21:27:55.163Z,20.34
2018-05-12T21:30:24.726Z,20.29
2018-05-12T21:32:53.092Z,20.21
2018-05-12T21:35:22.257Z,20.25
2018-05-12T21:37:50.583Z,20.11
2018-05-12T21:40:18.959Z,19.96
2018-05-12T21:42:47.297Z,19.96
2018-05-12T21:45:15.660Z,20.03
2018-05-12T21:47:44.729Z,19.97
2018-05-12T21:50:13.183Z,20.03
2018-05-12T21:52:41.517Z,20.06
2018-05-12T21:55:09.927Z,19.92
2018-05-12T21:57:38.250Z,19.99
2018-05-12T22:00:06.623Z,19.80
2018-05-12T22:02:34.959Z,19.81
2018-05-12T22:05:03.318Z,19.87
2018-05-12T22:07:31.703Z,19.86
2018-05-12T22:10:00.023Z,19.90
2018-05-12T22:12:28.352Z,19.88
2018-05-12T22:14:57.185Z,19.73
2018-05-12T22:17:25.561Z,19.78
2018-05-12T22:19:53.927Z,19.74
2018-05-12T22:22:22.263Z,19.78
2018-05-12T22:24:51.450Z,19.71
2018-05-12T22:27:20.681Z,19.82
2018-05-12T22:29:49.050Z,19.83
2018-05-12T22:32:17.425Z,19.70
2018-05-12T22:34:45.779Z,19.64
2018-05-12T22:37:14.144Z,19.77
2018-05-12T22:39:42.590Z,19.59
2018-05-12T22:42:11.917Z,19.57
2018-05-12T22:44:41.871Z,19.72
2018-05-12T22:47:10.254Z,19.70
2018-05-12T22:49:39.333Z,19.78
2018-05-12T22:52:07.693Z,19.78
2018-05-12T22:54:36.042Z,19.60
2018-05-12T22:57:04.417Z,19.56
2018-05-12T22:59:32.771Z,19.58
2018-05-12T23:02:01.126Z,19.61
2018-05-12T23:04:29.854Z,19.69
2018-05-12T23:06:59.022Z,19.85
2018-05-12T23:09:27.359Z,19.83
2018-05-12T23:11:56.541Z,19.87
2018-05-12T23:14:24.890Z,19.86
2018-05-12T23:16:53.311Z,19.79
2018-05-12T23:19:21.655Z,19.78
2018-05-12T23:21:50.741Z,19.82
2018-05-12T23:24:19.117Z,19.80
2018-05-12T23:26:47.725Z,19.77
2018-05-12T23:29:16.154Z,19.66
2018-05-12T23:31:45.429Z,19.69
2018-05-12T23:34:13.854Z,19.71
2018-05-12T23:36:42.473Z,19.66
2018-05-12T23:39:10.844Z,19.74
2018-05-12T23:41:39.189Z,19.54
2018-05-12T23:44:07.553Z,19.40
2018-05-12T23:46:37.618Z,19.38
2018-05-12T23:49:05.981Z,19.58
2018-05-12T23:51:34.347Z,19.57
2018-05-12T23:54:02.720Z,19.41
2018-05-12T23:56:31.118Z,19.43
2018-05-12T23:59:01.310Z,19.39
